Time;durP1;ratioP1;P1;durP2;ratioP2;P2;SDS_P1;SDS_P2;PMS_P1;PMS_P2;Temp;Humidity;BMP_temperature;BMP_pressure;BME280_temperature;BME280_humidity;BME280_pressure;Samples;Min_cycle;Max_cycle;Signal;HPM_P1;HPM_P2
2022/08/01 00:01:30;;;;;;;6.07;2.72;;;;;;;;;;5089368;28;20027;-65
2022/08/01 00:03:55;;;;;;;4.43;2.92;;;;;;;;;;5090791;28;20027;-66
2022/08/01 00:06:20;;;;;;;6.17;3.00;;;;;;;;;;5082260;28;20024;-65
2022/08/01 00:08:46;;;;;;;7.00;3.57;;;;;;;;;;5088432;28;20023;-66
2022/08/01 00:11:11;;;;;;;9.30;3.47;;;;;;;;;;5092948;28;20343;-66
2022/08/01 00:13:36;;;;;;;4.83;2.70;;;;;;;;;;5086087;28;20024;-66
2022/08/01 00:16:01;;;;;;;6.23;2.73;;;;;;;;;;5086025;28;20631;-66
2022/08/01 00:18:26;;;;;;;5.63;3.57;;;;;;;;;;5093099;28;20044;-66
2022/08/01 00:20:52;;;;;;;5.40;3.08;;;;;;;;;;5092515;28;20309;-66
2022/08/01 00:23:17;;;;;;;4.60;2.80;;;;;;;;;;5088201;28;20028;-65
2022/08/01 00:25:42;;;;;;;6.10;3.00;;;;;;;;;;5081770;28;20274;-66
2022/08/01 00:28:08;;;;;;;5.63;2.50;;;;;;;;;;5088912;28;20024;-66
2022/08/01 00:30:34;;;;;;;9.25;3.05;;;;;;;;;;5091495;28;20132;-65
2022/08/01 00:32:59;;;;;;;8.68;3.45;;;;;;;;;;5083289;28;20028;-65
2022/08/01 00:35:24;;;;;;;7.55;3.30;;;;;;;;;;5089793;28;20505;-66
2022/08/01 00:37:49;;;;;;;6.47;3.05;;;;;;;;;;5085350;28;20024;-66
2022/08/01 00:40:14;;;;;;;4.83;2.93;;;;;;;;;;5086926;28;20032;-66
2022/08/01 00:42:41;;;;;;;4.77;2.60;;;;;;;;;;5087342;28;20270;-66
2022/08/01 00:45:06;;;;;;;7.63;2.97;;;;;;;;;;5088294;28;20274;-66
2022/08/01 00:47:31;;;;;;;6.47;2.92;;;;;;;;;;5084782;28;20549;-66
2022/08/01 00:49:57;;;;;;;5.60;2.30;;;;;;;;;;5088050;28;20019;-66
2022/08/01 00:52:22;;;;;;;4.17;2.60;;;;;;;;;;5083482;28;20671;-65
2022/08/01 00:54:47;;;;;;;8.47;2.40;;;;;;;;;;5082781;28;20339;-65
2022/08/01 00:57:13;;;;;;;7.75;2.60;;;;;;;;;;5085435;28;20266;-65
2022/08/01 00:59:38;;;;;;;7.15;3.88;;;;;;;;;;5087851;28;20016;-65
2022/08/01 01:02:03;;;;;;;5.07;2.65;;;;;;;;;;5085505;28;20020;-65
2022/08/01 01:04:29;;;;;;;2.63;2.03;;;;;;;;;;5084577;28;20029;-65
2022/08/01 01:07:03;;;;;;;7.22;2.83;;;;;;;;;;5085420;28;20754;-65
2022/08/01 01:09:44;;;;;;;6.20;2.25;;;;;;;;;;5085998;28;20461;-65
2022/08/01 01:12:19;;;;;;;9.55;2.28;;;;;;;;;;5083912;28;20072;-66
2022/08/01 01:14:50;;;;;;;5.28;1.98;;;;;;;;;;5085612;28;20020;-65
2022/08/01 01:17:17;;;;;;;6.07;2.20;;;;;;;;;;5084089;28;20028;-65
2022/08/01 01:19:45;;;;;;;5.15;2.50;;;;;;;;;;5086918;28;20020;-65
2022/08/01 01:22:29;;;;;;;4.05;2.50;;;;;;;;;;5087781;28;20023;-64
2022/08/01 01:25:02;;;;;;;5.35;2.40;;;;;;;;;;5085232;28;20035;-64
2022/08/01 01:27:46;;;;;;;7.40;2.33;;;;;;;;;;5088236;28;20361;-64
2022/08/01 01:30:11;;;;;;;5.35;2.53;;;;;;;;;;5090853;28;20458;-65
2022/08/01 01:32:42;;;;;;;8.30;3.13;;;;;;;;;;5090861;28;20016;-66
2022/08/01 01:35:10;;;;;;;5.85;2.78;;;;;;;;;;5078871;28;20305;-65
2022/08/01 01:37:38;;;;;;;5.13;2.58;;;;;;;;;;5086278;28;20019;-64
2022/08/01 01:40:04;;;;;;;9.30;2.67;;;;;;;;;;5085159;28;20104;-66
2022/08/01 01:42:30;;;;;;;7.47;3.25;;;;;;;;;;5088182;28;20035;-65
2022/08/01 01:44:55;;;;;;;5.57;2.72;;;;;;;;;;5084164;28;20028;-65
2022/08/01 01:47:21;;;;;;;6.82;3.03;;;;;;;;;;5080732;28;20399;-65
2022/08/01 01:49:47;;;;;;;5.75;3.03;;;;;;;;;;5087649;28;20016;-66
2022/08/01 01:52:13;;;;;;;8.02;4.07;;;;;;;;;;5087149;28;20015;-65
2022/08/01 01:54:40;;;;;;;4.70;2.80;;;;;;;;;;5079896;28;20027;-65
2022/08/01 01:57:06;;;;;;;6.28;3.20;;;;;;;;;;5087617;28;20096;-65
2022/08/01 01:59:34;;;;;;;7.57;3.40;;;;;;;;;;5086429;28;20034;-66
2022/08/01 02:02:01;;;;;;;6.60;3.60;;;;;;;;;;5087238;28;20103;-66
2022/08/01 02:04:26;;;;;;;8.02;3.58;;;;;;;;;;5086895;28;20024;-65
2022/08/01 02:06:52;;;;;;;6.63;3.30;;;;;;;;;;5089063;28;20023;-66
2022/08/01 02:09:19;;;;;;;7.25;3.20;;;;;;;;;;5079594;28;20499;-66
2022/08/01 02:11:45;;;;;;;5.20;3.10;;;;;;;;;;5088516;28;20023;-66
2022/08/01 02:14:11;;;;;;;5.82;3.10;;;;;;;;;;5084805;28;20024;-66
2022/08/01 02:16:37;;;;;;;5.32;2.83;;;;;;;;;;5083824;28;20027;-66
2022/08/01 02:19:02;;;;;;;6.78;2.97;;;;;;;;;;5089002;28;20023;-66
2022/08/01 02:21:29;;;;;;;6.88;3.08;;;;;;;;;;5082118;28;20032;-66
2022/08/01 02:23:57;;;;;;;6.50;3.00;;;;;;;;;;5078136;28;20020;-66
2022/08/01 02:26:22;;;;;;;5.40;2.63;;;;;;;;;;5082857;28;20016;-66
2022/08/01 02:28:50;;;;;;;5.25;3.38;;;;;;;;;;5080396;28;20526;-66
2022/08/01 02:31:18;;;;;;;9.95;2.80;;;;;;;;;;5074016;28;20149;-66
2022/08/01 02:33:45;;;;;;;8.45;2.83;;;;;;;;;;5082202;28;20063;-66
2022/08/01 02:36:11;;;;;;;8.18;3.00;;;;;;;;;;5086573;28;20028;-66
2022/08/01 02:38:39;;;;;;;3.63;2.55;;;;;;;;;;5089995;28;20486;-66
2022/08/01 02:41:07;;;;;;;5.57;2.78;;;;;;;;;;5086519;28;20016;-66
2022/08/01 02:43:33;;;;;;;6.40;3.17;;;;;;;;;;5081857;28;20107;-65
2022/08/01 02:46:00;;;;;;;4.32;2.80;;;;;;;;;;5084312;28;20024;-65
2022/08/01 02:48:26;;;;;;;8.32;3.10;;;;;;;;;;5087077;28;20377;-65
2022/08/01 02:50:54;;;;;;;8.02;4.10;;;;;;;;;;5080279;28;20062;-65
2022/08/01 02:53:20;;;;;;;9.10;3.35;;;;;;;;;;5085688;28;20073;-64
2022/08/01 02:55:47;;;;;;;13.93;3.90;;;;;;;;;;5081416;28;20423;-65
2022/08/01 02:58:13;;;;;;;10.23;3.97;;;;;;;;;;5074521;28;20614;-65
2022/08/01 03:00:40;;;;;;;5.28;3.28;;;;;;;;;;5079700;28;20507;-65
2022/08/01 03:03:06;;;;;;;6.25;3.67;;;;;;;;;;5084763;28;20023;-64
2022/08/01 03:05:32;;;;;;;7.13;3.60;;;;;;;;;;5083588;28;20496;-64
2022/08/01 03:07:58;;;;;;;11.70;4.05;;;;;;;;;;5085410;28;20042;-65
2022/08/01 03:10:24;;;;;;;10.43;4.05;;;;;;;;;;5086815;28;20012;-65
2022/08/01 03:12:50;;;;;;;7.85;4.68;;;;;;;;;;5084743;28;20039;-65
2022/08/01 03:15:16;;;;;;;8.10;4.30;;;;;;;;;;5085634;28;20019;-65
2022/08/01 03:17:42;;;;;;;14.30;4.03;;;;;;;;;;5086540;28;20031;-65
2022/08/01 03:20:10;;;;;;;8.95;4.57;;;;;;;;;;5089052;28;20401;-65
2022/08/01 03:22:37;;;;;;;7.82;4.05;;;;;;;;;;5095271;28;21501;-65
2022/08/01 03:25:03;;;;;;;9.60;4.05;;;;;;;;;;5088352;28;20023;-65
2022/08/01 03:27:28;;;;;;;9.38;4.25;;;;;;;;;;5086267;28;20035;-65
2022/08/01 03:29:55;;;;;;;12.80;4.85;;;;;;;;;;5086081;28;20027;-65
2022/08/01 03:32:22;;;;;;;10.80;3.78;;;;;;;;;;5094072;28;20104;-65
2022/08/01 03:34:48;;;;;;;8.43;4.22;;;;;;;;;;5087797;28;20024;-66
2022/08/01 03:37:27;;;;;;;12.23;5.00;;;;;;;;;;5084859;28;20028;-65
2022/08/01 03:40:02;;;;;;;11.40;4.80;;;;;;;;;;5093826;28;20028;-66
2022/08/01 03:42:43;;;;;;;11.38;4.97;;;;;;;;;;5082423;28;20044;-65
2022/08/01 03:45:12;;;;;;;12.98;5.07;;;;;;;;;;5087788;28;20018;-65
2022/08/01 03:47:41;;;;;;;11.48;5.43;;;;;;;;;;5088593;28;20024;-65
2022/08/01 03:50:07;;;;;;;10.25;4.88;;;;;;;;;;5082779;28;20008;-65
2022/08/01 03:52:34;;;;;;;17.50;6.03;;;;;;;;;;5081012;28;20488;-66
2022/08/01 03:55:03;;;;;;;15.48;5.60;;;;;;;;;;5087019;28;20043;-66
2022/08/01 03:57:28;;;;;;;11.48;5.70;;;;;;;;;;5084918;28;20024;-66
2022/08/01 03:59:54;;;;;;;14.68;6.18;;;;;;;;;;5087582;28;20039;-66
2022/08/01 04:02:21;;;;;;;10.63;5.53;;;;;;;;;;5086683;28;20380;-66
2022/08/01 04:04:46;;;;;;;9.45;5.63;;;;;;;;;;5084782;28;20067;-66
2022/08/01 04:07:25;;;;;;;9.87;5.50;;;;;;;;;;5085306;28;20367;-66
2022/08/01 04:09:50;;;;;;;9.90;4.90;;;;;;;;;;5076593;28;20347;-66
2022/08/01 04:12:15;;;;;;;9.15;4.90;;;;;;;;;;5085701;28;20062;-66
2022/08/01 04:14:40;;;;;;;15.03;5.67;;;;;;;;;;5086531;28;20024;-66
2022/08/01 04:17:06;;;;;;;14.80;6.23;;;;;;;;;;5091506;28;20024;-66
2022/08/01 04:19:31;;;;;;;13.13;6.83;;;;;;;;;;5091966;28;20267;-66
2022/08/01 04:21:56;;;;;;;17.23;5.00;;;;;;;;;;5091102;28;20657;-66
2022/08/01 04:26:56;;;;;;;11.50;6.35;;;;;;;;;;5098366;28;20426;-65
2022/08/01 04:29:22;;;;;;;18.02;6.28;;;;;;;;;;5107402;28;20020;-65
2022/08/01 04:31:48;;;;;;;19.77;8.10;;;;;;;;;;5109353;27;20031;-65
2022/08/01 04:34:15;;;;;;;10.80;6.18;;;;;;;;;;5108157;28;20459;-65
2022/08/01 04:36:41;;;;;;;17.98;7.35;;;;;;;;;;5082973;28;20057;-65
2022/08/01 04:39:08;;;;;;;15.07;6.82;;;;;;;;;;5086878;28;20021;-65
2022/08/01 04:41:35;;;;;;;13.48;7.45;;;;;;;;;;5086811;28;20024;-65
2022/08/01 04:44:02;;;;;;;16.58;7.45;;;;;;;;;;5084930;28;20035;-66
2022/08/01 04:46:28;;;;;;;15.73;7.90;;;;;;;;;;5088602;28;20106;-66
2022/08/01 04:48:54;;;;;;;15.55;8.10;;;;;;;;;;5076682;28;20028;-66
2022/08/01 04:51:21;;;;;;;14.63;8.90;;;;;;;;;;5083997;28;20017;-66
2022/08/01 04:53:47;;;;;;;18.73;9.10;;;;;;;;;;5083961;28;20046;-65
2022/08/01 04:56:12;;;;;;;14.10;7.43;;;;;;;;;;5083242;28;20456;-65
2022/08/01 04:58:38;;;;;;;18.90;8.82;;;;;;;;;;5089989;28;20031;-65
2022/08/01 05:01:03;;;;;;;25.65;8.20;;;;;;;;;;5083561;28;20527;-65
2022/08/01 05:03:28;;;;;;;14.70;9.07;;;;;;;;;;5079222;28;20021;-66
2022/08/01 05:05:54;;;;;;;19.65;8.52;;;;;;;;;;5083854;28;20278;-66
2022/08/01 05:08:19;;;;;;;22.15;8.98;;;;;;;;;;5086257;28;20103;-66
2022/08/01 05:10:44;;;;;;;19.87;9.10;;;;;;;;;;5086371;28;20096;-66
2022/08/01 05:13:10;;;;;;;14.40;9.50;;;;;;;;;;5084455;28;20071;-66
2022/08/01 05:15:38;;;;;;;22.80;9.68;;;;;;;;;;5089330;28;20023;-66
2022/08/01 05:18:04;;;;;;;12.18;8.68;;;;;;;;;;5080536;28;20115;-66
2022/08/01 05:20:29;;;;;;;18.38;9.02;;;;;;;;;;5083591;28;20111;-66
2022/08/01 05:22:54;;;;;;;20.30;10.07;;;;;;;;;;5084086;28;20035;-66
2022/08/01 05:25:20;;;;;;;17.73;10.20;;;;;;;;;;5087320;28;20032;-66
2022/08/01 05:27:45;;;;;;;17.58;9.50;;;;;;;;;;5080042;28;20299;-66
2022/08/01 05:30:10;;;;;;;18.83;10.00;;;;;;;;;;5080769;28;20016;-66
2022/08/01 05:32:36;;;;;;;22.25;10.57;;;;;;;;;;5082862;28;20279;-66
2022/08/01 05:35:02;;;;;;;21.70;10.95;;;;;;;;;;5081554;28;20012;-66
2022/08/01 05:37:27;;;;;;;22.25;11.07;;;;;;;;;;5081192;28;20027;-66
2022/08/01 05:39:52;;;;;;;19.55;10.43;;;;;;;;;;5084584;28;20446;-66
2022/08/01 05:42:17;;;;;;;20.87;10.20;;;;;;;;;;5082194;28;20020;-66
2022/08/01 05:44:42;;;;;;;20.43;10.20;;;;;;;;;;5082837;28;20274;-66
2022/08/01 05:47:08;;;;;;;24.07;11.37;;;;;;;;;;5077689;28;20741;-66
2022/08/01 05:49:33;;;;;;;19.20;10.65;;;;;;;;;;5081115;28;20289;-66
2022/08/01 05:51:58;;;;;;;28.30;10.73;;;;;;;;;;5080854;28;20028;-66
2022/08/01 05:54:23;;;;;;;22.98;12.00;;;;;;;;;;5083248;28;20087;-66
2022/08/01 05:56:48;;;;;;;32.20;11.13;;;;;;;;;;5084467;28;20075;-66
2022/08/01 05:59:14;;;;;;;21.17;10.93;;;;;;;;;;5081884;28;20345;-65
2022/08/01 06:01:39;;;;;;;24.97;10.73;;;;;;;;;;5083772;28;20077;-66
2022/08/01 06:04:04;;;;;;;15.63;11.35;;;;;;;;;;5084886;28;20060;-66
2022/08/01 06:06:29;;;;;;;26.23;10.23;;;;;;;;;;5080590;28;20024;-66
2022/08/01 06:08:55;;;;;;;18.90;10.02;;;;;;;;;;5077792;28;20302;-66
2022/08/01 06:11:21;;;;;;;20.73;9.80;;;;;;;;;;5084784;28;20444;-66
2022/08/01 06:13:46;;;;;;;22.08;10.63;;;;;;;;;;5082443;28;20008;-66
2022/08/01 06:16:11;;;;;;;20.23;10.75;;;;;;;;;;5086852;28;20028;-66
2022/08/01 06:18:36;;;;;;;18.75;10.05;;;;;;;;;;5080904;28;20038;-66
2022/08/01 06:21:01;;;;;;;19.27;10.43;;;;;;;;;;5082344;28;20032;-66
2022/08/01 06:23:27;;;;;;;20.55;11.05;;;;;;;;;;5075924;28;20460;-66
2022/08/01 06:25:52;;;;;;;19.83;10.57;;;;;;;;;;5082711;28;20476;-66
2022/08/01 06:28:18;;;;;;;22.30;11.32;;;;;;;;;;5078467;28;20380;-66
2022/08/01 06:30:43;;;;;;;21.17;11.30;;;;;;;;;;5076472;28;20108;-66
2022/08/01 06:33:08;;;;;;;25.67;12.07;;;;;;;;;;5081721;28;20267;-66
2022/08/01 06:35:33;;;;;;;22.70;10.55;;;;;;;;;;5082908;28;20019;-66
2022/08/01 06:37:59;;;;;;;29.92;11.77;;;;;;;;;;5086063;28;20040;-66
2022/08/01 06:40:24;;;;;;;25.70;13.35;;;;;;;;;;5081307;28;20048;-66
2022/08/01 06:42:49;;;;;;;21.90;12.23;;;;;;;;;;5079678;28;20031;-66
2022/08/01 06:45:15;;;;;;;21.55;12.98;;;;;;;;;;5082461;28;20028;-66
2022/08/01 06:47:41;;;;;;;22.75;11.27;;;;;;;;;;5082681;28;20064;-66
2022/08/01 06:50:07;;;;;;;19.40;13.27;;;;;;;;;;5085381;28;20043;-66
2022/08/01 06:52:32;;;;;;;26.13;12.95;;;;;;;;;;5087746;28;20030;-66
2022/08/01 06:54:57;;;;;;;25.13;12.40;;;;;;;;;;5082722;28;20097;-66
2022/08/01 06:57:22;;;;;;;17.90;11.13;;;;;;;;;;5078672;28;20103;-66
2022/08/01 06:59:48;;;;;;;23.43;12.73;;;;;;;;;;5073931;28;20270;-66
2022/08/01 07:02:13;;;;;;;20.77;12.50;;;;;;;;;;5087441;28;20405;-66
2022/08/01 07:04:38;;;;;;;18.53;11.03;;;;;;;;;;5077263;28;20308;-66
2022/08/01 07:07:03;;;;;;;21.23;11.93;;;;;;;;;;5088404;28;20289;-66
2022/08/01 07:09:28;;;;;;;20.77;11.75;;;;;;;;;;5087782;28;20388;-66
2022/08/01 07:11:55;;;;;;;19.27;12.20;;;;;;;;;;5078730;28;20035;-66
2022/08/01 07:14:20;;;;;;;19.00;13.18;;;;;;;;;;5084847;28;20266;-66
2022/08/01 07:16:46;;;;;;;16.60;11.90;;;;;;;;;;5082684;28;20020;-66
2022/08/01 07:19:12;;;;;;;16.95;11.20;;;;;;;;;;5073312;28;20017;-66
2022/08/01 07:21:38;;;;;;;26.00;13.88;;;;;;;;;;5081379;28;20029;-66
2022/08/01 07:24:03;;;;;;;19.85;11.70;;;;;;;;;;5084700;28;20024;-66
2022/08/01 07:26:28;;;;;;;19.27;12.13;;;;;;;;;;5083814;28;20032;-66
2022/08/01 07:28:54;;;;;;;15.50;11.47;;;;;;;;;;5083150;28;20133;-66
2022/08/01 07:31:19;;;;;;;15.45;10.70;;;;;;;;;;5083345;28;20161;-66
2022/08/01 07:33:44;;;;;;;15.80;10.93;;;;;;;;;;5086759;28;20013;-66
2022/08/01 07:36:09;;;;;;;17.73;11.13;;;;;;;;;;5090139;28;20024;-66
2022/08/01 07:38:34;;;;;;;13.73;10.00;;;;;;;;;;5087866;28;20105;-66
2022/08/01 07:41:00;;;;;;;17.50;11.13;;;;;;;;;;5087569;28;20346;-66
2022/08/01 07:43:25;;;;;;;17.57;11.13;;;;;;;;;;5089323;28;20285;-66
2022/08/01 07:45:50;;;;;;;21.97;12.30;;;;;;;;;;5088571;28;20278;-66
2022/08/01 07:48:15;;;;;;;16.57;10.93;;;;;;;;;;5087588;28;20277;-66
2022/08/01 07:50:40;;;;;;;18.87;10.23;;;;;;;;;;5086895;28;20052;-65
2022/08/01 07:53:06;;;;;;;18.23;11.10;;;;;;;;;;5079725;28;20606;-65
2022/08/01 07:55:31;;;;;;;16.83;10.65;;;;;;;;;;5088897;28;20383;-65
2022/08/01 07:57:56;;;;;;;13.07;8.63;;;;;;;;;;5088917;28;20022;-65
2022/08/01 08:00:21;;;;;;;12.35;7.65;;;;;;;;;;5091999;28;20020;-65
2022/08/01 08:02:46;;;;;;;10.17;6.83;;;;;;;;;;5083462;28;20028;-65
2022/08/01 08:05:12;;;;;;;12.07;7.63;;;;;;;;;;5088255;28;20271;-65
2022/08/01 08:07:37;;;;;;;11.85;7.50;;;;;;;;;;5076463;28;20071;-65
2022/08/01 08:10:03;;;;;;;11.38;7.15;;;;;;;;;;5083829;28;20089;-65
2022/08/01 08:12:28;;;;;;;16.00;7.40;;;;;;;;;;5093411;28;20642;-65
2022/08/01 08:14:54;;;;;;;13.53;8.10;;;;;;;;;;5089617;28;20031;-65
2022/08/01 08:17:19;;;;;;;9.60;6.50;;;;;;;;;;5086319;28;20051;-65
2022/08/01 08:19:44;;;;;;;13.27;6.45;;;;;;;;;;5088169;28;20414;-65
2022/08/01 08:22:09;;;;;;;9.38;6.35;;;;;;;;;;5088537;28;20060;-65
2022/08/01 08:24:35;;;;;;;8.77;5.10;;;;;;;;;;5087067;28;20118;-65
2022/08/01 08:27:01;;;;;;;9.68;4.10;;;;;;;;;;5082813;28;20267;-66
2022/08/01 08:29:27;;;;;;;6.43;4.78;;;;;;;;;;5091807;28;20069;-65
2022/08/01 08:31:53;;;;;;;7.47;4.57;;;;;;;;;;5080611;28;20019;-65
2022/08/01 08:34:19;;;;;;;9.75;5.47;;;;;;;;;;5090174;28;20072;-65
2022/08/01 08:36:44;;;;;;;6.43;4.60;;;;;;;;;;5087102;28;20024;-65
2022/08/01 08:39:09;;;;;;;5.50;3.67;;;;;;;;;;5084936;28;20754;-65
2022/08/01 08:41:35;;;;;;;6.97;5.13;;;;;;;;;;5083769;28;20019;-65
2022/08/01 08:44:01;;;;;;;7.78;4.45;;;;;;;;;;5086897;28;20277;-65
2022/08/01 08:46:27;;;;;;;6.55;4.13;;;;;;;;;;5088922;28;20020;-65
2022/08/01 08:48:52;;;;;;;9.68;4.40;;;;;;;;;;5089073;28;20020;-65
2022/08/01 08:51:18;;;;;;;9.05;4.03;;;;;;;;;;5083442;28;20017;-65
2022/08/01 08:53:45;;;;;;;6.43;4.70;;;;;;;;;;5088890;28;20020;-65
2022/08/01 08:56:15;;;;;;;8.75;5.22;;;;;;;;;;5087450;28;20024;-66
2022/08/01 08:58:40;;;;;;;11.60;5.10;;;;;;;;;;5086047;28;20412;-65
2022/08/01 09:01:07;;;;;;;12.27;4.32;;;;;;;;;;5084763;28;20023;-65
2022/08/01 09:03:32;;;;;;;7.57;4.38;;;;;;;;;;5085867;28;20013;-65
2022/08/01 09:05:57;;;;;;;8.15;4.32;;;;;;;;;;5084118;28;20106;-65
2022/08/01 09:08:22;;;;;;;10.47;4.87;;;;;;;;;;5071423;28;20020;-66
2022/08/01 09:10:48;;;;;;;7.80;4.63;;;;;;;;;;5088577;28;20308;-65
2022/08/01 09:13:14;;;;;;;5.90;3.60;;;;;;;;;;5089783;28;20016;-65
2022/08/01 09:15:40;;;;;;;5.88;3.63;;;;;;;;;;5085150;28;20048;-65
2022/08/01 09:18:06;;;;;;;5.30;3.83;;;;;;;;;;5085270;28;20108;-66
2022/08/01 09:20:31;;;;;;;5.85;4.10;;;;;;;;;;5085438;28;20609;-66
2022/08/01 09:22:56;;;;;;;5.05;3.70;;;;;;;;;;5087490;28;20499;-66
2022/08/01 09:25:21;;;;;;;7.00;4.07;;;;;;;;;;5089511;28;20476;-66
2022/08/01 09:27:47;;;;;;;5.30;3.93;;;;;;;;;;5082745;28;20295;-66
2022/08/01 09:30:16;;;;;;;6.35;4.20;;;;;;;;;;5082036;28;20074;-66
2022/08/01 09:32:55;;;;;;;6.28;4.25;;;;;;;;;;5087733;28;20043;-66
2022/08/01 09:35:32;;;;;;;5.53;3.83;;;;;;;;;;5083910;28;20441;-65
2022/08/01 09:38:16;;;;;;;9.73;4.53;;;;;;;;;;5087994;28;20077;-65
2022/08/01 09:40:44;;;;;;;9.55;3.72;;;;;;;;;;5088219;28;20035;-65
2022/08/01 09:43:10;;;;;;;5.00;3.47;;;;;;;;;;5082723;28;20739;-65
2022/08/01 09:45:36;;;;;;;4.80;3.00;;;;;;;;;;5089291;28;20085;-65
2022/08/01 09:48:05;;;;;;;7.15;3.55;;;;;;;;;;5083371;28;20020;-65
2022/08/01 09:50:38;;;;;;;6.93;3.97;;;;;;;;;;5083635;28;20119;-65
2022/08/01 09:53:03;;;;;;;5.68;3.63;;;;;;;;;;5086703;28;20016;-65
2022/08/01 09:55:28;;;;;;;6.50;4.18;;;;;;;;;;5088136;28;20487;-65
2022/08/01 09:57:54;;;;;;;6.00;3.55;;;;;;;;;;5083923;28;20020;-66
2022/08/01 10:00:19;;;;;;;6.47;4.22;;;;;;;;;;5072730;28;20009;-66
2022/08/01 10:02:45;;;;;;;6.50;3.63;;;;;;;;;;5088167;28;20024;-66
2022/08/01 10:05:10;;;;;;;5.47;4.10;;;;;;;;;;5087493;28;20353;-66
2022/08/01 10:07:54;;;;;;;13.00;3.70;;;;;;;;;;5088474;28;20111;-66
2022/08/01 10:10:19;;;;;;;9.68;4.45;;;;;;;;;;5080849;28;20005;-66
2022/08/01 10:12:45;;;;;;;7.60;4.65;;;;;;;;;;5087484;28;20020;-66
2022/08/01 10:15:10;;;;;;;6.40;3.80;;;;;;;;;;5086569;28;20032;-66
2022/08/01 10:17:38;;;;;;;6.63;3.80;;;;;;;;;;5082560;28;20035;-66
2022/08/01 10:20:03;;;;;;;6.28;3.70;;;;;;;;;;5085794;28;20028;-65
2022/08/01 10:22:30;;;;;;;8.57;3.95;;;;;;;;;;5084816;28;20016;-65
2022/08/01 10:24:57;;;;;;;5.82;3.42;;;;;;;;;;5086046;28;20035;-65
2022/08/01 10:27:23;;;;;;;7.88;4.35;;;;;;;;;;5080677;28;20016;-66
2022/08/01 10:29:54;;;;;;;17.20;8.98;;;;;;;;;;5081213;28;20032;-66
2022/08/01 10:32:20;;;;;;;5.10;3.72;;;;;;;;;;5085887;28;20023;-66
2022/08/01 10:34:45;;;;;;;5.68;3.92;;;;;;;;;;5083759;28;20012;-67
2022/08/01 10:37:12;;;;;;;26.63;13.43;;;;;;;;;;5083252;28;20513;-66
2022/08/01 10:39:39;;;;;;;15.82;4.60;;;;;;;;;;5090618;28;20674;-66
2022/08/01 10:42:05;;;;;;;8.25;5.07;;;;;;;;;;5084229;28;20027;-66
2022/08/01 10:44:31;;;;;;;9.38;6.20;;;;;;;;;;5086930;28;20051;-66
2022/08/01 10:47:02;;;;;;;4.68;3.35;;;;;;;;;;5087203;28;20098;-66
2022/08/01 10:49:30;;;;;;;4.82;2.83;;;;;;;;;;5087966;28;20098;-66
2022/08/01 10:51:55;;;;;;;6.75;3.22;;;;;;;;;;5087796;28;20023;-66
2022/08/01 10:54:24;;;;;;;4.57;3.08;;;;;;;;;;5087393;28;20024;-66
2022/08/01 10:56:50;;;;;;;6.15;3.10;;;;;;;;;;5083850;28;20376;-66
2022/08/01 10:59:20;;;;;;;5.30;3.40;;;;;;;;;;5081242;28;20024;-67
2022/08/01 11:01:54;;;;;;;4.78;2.85;;;;;;;;;;5088039;28;20028;-66
2022/08/01 11:04:20;;;;;;;4.25;2.50;;;;;;;;;;5087961;28;20468;-66
2022/08/01 11:07:03;;;;;;;6.68;3.70;;;;;;;;;;5084611;28;20031;-65
2022/08/01 11:09:39;;;;;;;6.88;3.42;;;;;;;;;;5086157;28;20023;-65
2022/08/01 11:12:06;;;;;;;7.85;3.28;;;;;;;;;;5086366;28;20342;-65
2022/08/01 11:14:32;;;;;;;8.15;3.22;;;;;;;;;;5089425;28;20051;-66
2022/08/01 11:17:17;;;;;;;12.70;4.22;;;;;;;;;;5075998;28;20020;-64
2022/08/01 11:20:01;;;;;;;4.80;2.72;;;;;;;;;;5079951;28;20105;-65
2022/08/01 11:22:26;;;;;;;5.05;2.97;;;;;;;;;;5088770;28;20008;-65
2022/08/01 11:24:56;;;;;;;4.67;2.90;;;;;;;;;;5075911;28;20033;-65
2022/08/01 11:27:23;;;;;;;4.75;3.17;;;;;;;;;;5086399;28;20016;-65
2022/08/01 11:30:06;;;;;;;6.70;2.72;;;;;;;;;;5080668;28;20016;-65
2022/08/01 11:32:32;;;;;;;7.25;3.33;;;;;;;;;;5091465;28;20095;-65
2022/08/01 11:34:57;;;;;;;3.67;3.00;;;;;;;;;;5091883;28;20424;-65
2022/08/01 11:37:23;;;;;;;4.60;2.65;;;;;;;;;;5087498;28;20016;-65
2022/08/01 11:40:15;;;;;;;9.35;2.63;;;;;;;;;;5088381;28;20018;-65
2022/08/01 11:42:40;;;;;;;5.03;2.92;;;;;;;;;;5076961;28;20033;-65
2022/08/01 11:45:06;;;;;;;4.88;3.30;;;;;;;;;;5082661;28;20031;-65
2022/08/01 11:47:47;;;;;;;4.82;3.05;;;;;;;;;;5077516;28;20021;-65
2022/08/01 11:50:35;;;;;;;3.20;2.58;;;;;;;;;;5089429;28;20028;-65
2022/08/01 11:53:02;;;;;;;5.13;2.30;;;;;;;;;;5073287;28;20032;-67
2022/08/01 11:55:28;;;;;;;5.40;2.50;;;;;;;;;;5086196;28;20475;-66
2022/08/01 11:58:07;;;;;;;3.97;2.50;;;;;;;;;;5089951;28;20085;-66
2022/08/01 12:00:33;;;;;;;3.30;2.17;;;;;;;;;;5085495;28;20027;-65
2022/08/01 12:02:58;;;;;;;5.53;2.65;;;;;;;;;;5085178;28;20024;-65
2022/08/01 12:05:23;;;;;;;5.47;3.10;;;;;;;;;;5090044;28;20019;-67
2022/08/01 12:07:50;;;;;;;3.60;1.85;;;;;;;;;;5085783;28;21714;-65
2022/08/01 12:10:16;;;;;;;8.35;2.42;;;;;;;;;;5081065;28;20021;-65
2022/08/01 12:12:45;;;;;;;3.60;2.08;;;;;;;;;;5083549;28;20388;-65
2022/08/01 12:15:11;;;;;;;5.37;2.17;;;;;;;;;;5088893;28;20114;-66
2022/08/01 12:17:36;;;;;;;5.57;2.70;;;;;;;;;;5083085;28;20423;-65
2022/08/01 12:20:03;;;;;;;2.80;2.03;;;;;;;;;;5090045;28;20031;-66
2022/08/01 12:22:28;;;;;;;7.80;1.92;;;;;;;;;;5089049;28;20024;-66
2022/08/01 12:24:53;;;;;;;2.83;1.77;;;;;;;;;;5086255;28;20028;-66
2022/08/01 12:27:26;;;;;;;2.63;1.80;;;;;;;;;;5082198;28;20423;-66
2022/08/01 12:29:51;;;;;;;3.90;2.22;;;;;;;;;;5086241;28;20488;-65
2022/08/01 12:32:34;;;;;;;3.17;1.53;;;;;;;;;;5085047;28;20030;-68
2022/08/01 12:35:05;;;;;;;3.58;1.98;;;;;;;;;;5085274;28;20008;-65
2022/08/01 12:37:31;;;;;;;7.05;3.15;;;;;;;;;;5085452;28;20039;-66
2022/08/01 12:39:57;;;;;;;8.10;2.70;;;;;;;;;;5083539;28;20024;-66
2022/08/01 12:42:22;;;;;;;3.00;2.00;;;;;;;;;;5069777;28;20027;-66
2022/08/01 12:44:51;;;;;;;2.83;1.70;;;;;;;;;;5082660;28;20019;-65
2022/08/01 12:47:17;;;;;;;2.53;1.60;;;;;;;;;;5087340;28;20379;-66
2022/08/01 12:49:43;;;;;;;3.08;1.23;;;;;;;;;;5081445;28;20025;-65
2022/08/01 12:52:08;;;;;;;1.85;1.20;;;;;;;;;;5083595;28;20023;-67
2022/08/01 12:54:52;;;;;;;2.10;1.48;;;;;;;;;;5088554;28;20376;-65
2022/08/01 12:57:24;;;;;;;17.48;12.40;;;;;;;;;;5080207;28;20051;-65
2022/08/01 12:59:52;;;;;;;22.05;15.07;;;;;;;;;;5082239;28;20599;-68
2022/08/01 13:02:18;;;;;;;17.05;8.90;;;;;;;;;;5089738;28;20043;-65
2022/08/01 13:04:51;;;;;;;8.68;4.82;;;;;;;;;;5089093;28;20024;-65
2022/08/01 13:07:16;;;;;;;5.85;1.73;;;;;;;;;;5086499;28;20046;-67
2022/08/01 13:09:51;;;;;;;8.20;1.83;;;;;;;;;;5085566;28;20027;-65
2022/08/01 13:12:16;;;;;;;6.65;1.17;;;;;;;;;;5081444;28;20460;-64
2022/08/01 13:14:41;;;;;;;2.05;1.20;;;;;;;;;;5087133;28;20182;-64
2022/08/01 13:17:06;;;;;;;1.20;0.87;;;;;;;;;;5088441;28;20388;-65
2022/08/01 13:19:41;;;;;;;5.60;0.80;;;;;;;;;;5088408;28;20053;-65
2022/08/01 13:22:06;;;;;;;4.45;1.20;;;;;;;;;;5084780;28;20286;-66
2022/08/01 13:24:31;;;;;;;1.53;1.00;;;;;;;;;;5086682;28;20027;-66
2022/08/01 13:26:59;;;;;;;4.68;0.93;;;;;;;;;;5085650;28;20385;-65
2022/08/01 13:29:31;;;;;;;3.30;1.08;;;;;;;;;;5087817;28;20069;-67
2022/08/01 13:31:56;;;;;;;2.22;1.10;;;;;;;;;;5077923;28;20260;-65
2022/08/01 13:34:32;;;;;;;3.60;0.97;;;;;;;;;;5063207;28;20035;-65
2022/08/01 13:36:57;;;;;;;2.58;0.90;;;;;;;;;;5081128;28;20635;-66
2022/08/01 13:39:41;;;;;;;7.10;4.27;;;;;;;;;;5084595;28;20016;-65
2022/08/01 13:42:07;;;;;;;4.00;2.92;;;;;;;;;;5088115;28;20270;-66
2022/08/01 13:44:32;;;;;;;53.13;3.85;;;;;;;;;;5083364;28;20166;-65
2022/08/01 13:46:57;;;;;;;9.70;2.50;;;;;;;;;;5083973;28;20502;-66
2022/08/01 13:49:22;;;;;;;1.87;1.20;;;;;;;;;;5085182;28;20854;-65
2022/08/01 13:51:49;;;;;;;7.45;1.83;;;;;;;;;;5087549;28;20278;-65
2022/08/01 13:54:15;;;;;;;2.50;1.35;;;;;;;;;;5083274;28;20141;-65
2022/08/01 13:56:40;;;;;;;5.07;1.25;;;;;;;;;;5091778;28;20471;-65
2022/08/01 13:59:06;;;;;;;1.03;0.70;;;;;;;;;;5085322;28;20030;-68
2022/08/01 14:01:31;;;;;;;2.03;1.10;;;;;;;;;;5084959;28;20266;-66
2022/08/01 14:03:56;;;;;;;2.10;1.00;;;;;;;;;;5084675;28;20614;-65
2022/08/01 14:06:22;;;;;;;1.67;0.90;;;;;;;;;;5087726;28;20099;-65
2022/08/01 14:08:47;;;;;;;1.52;0.90;;;;;;;;;;5083890;28;20028;-65
2022/08/01 14:11:12;;;;;;;1.70;1.03;;;;;;;;;;5082921;28;20024;-67
2022/08/01 14:13:38;;;;;;;1.83;1.10;;;;;;;;;;5087071;28;20274;-65
2022/08/01 14:16:04;;;;;;;2.05;0.98;;;;;;;;;;5088698;28;20603;-67
2022/08/01 14:18:29;;;;;;;3.30;0.90;;;;;;;;;;5085602;28;20077;-67
2022/08/01 14:20:55;;;;;;;5.33;1.43;;;;;;;;;;5083578;28;20028;-65
2022/08/01 14:23:20;;;;;;;3.40;0.80;;;;;;;;;;5080429;28;20187;-67
2022/08/01 14:25:45;;;;;;;3.33;1.00;;;;;;;;;;5079734;28;20103;-67
2022/08/01 14:28:10;;;;;;;1.70;0.90;;;;;;;;;;5084833;28;20388;-66
2022/08/01 14:30:36;;;;;;;4.65;0.88;;;;;;;;;;5084720;28;20801;-66
2022/08/01 14:33:01;;;;;;;2.03;0.85;;;;;;;;;;5083902;28;20044;-67
2022/08/01 14:35:26;;;;;;;2.40;1.33;;;;;;;;;;5087105;28;20035;-67
2022/08/01 14:37:51;;;;;;;3.57;1.30;;;;;;;;;;5087026;28;20047;-65